createdAt,value
2023-03-15T00:00:54.370Z,61.37
2023-03-15T00:03:20.706Z,60.46
2023-03-15T00:05:47.028Z,61.06
2023-03-15T00:08:13.364Z,60.52
2023-03-15T00:10:39.677Z,60.54
2023-03-15T00:13:05.992Z,60.93
2023-03-15T00:15:32.351Z,61.00
2023-03-15T00:17:58.674Z,61.18
2023-03-15T00:20:24.983Z,61.07
2023-03-15T00:22:51.303Z,61.19
2023-03-15T00:25:17.744Z,61.36
2023-03-15T00:27:44.070Z,60.46
2023-03-15T00:30:10.400Z,60.27
2023-03-15T00:32:36.739Z,60.24
2023-03-15T00:35:03.050Z,59.83
2023-03-15T00:37:29.346Z,59.68
2023-03-15T00:39:55.735Z,59.37
2023-03-15T00:42:22.074Z,59.37
2023-03-15T00:44:48.374Z,58.47
2023-03-15T00:47:14.668Z,58.52
2023-03-15T00:49:41.010Z,58.42
2023-03-15T00:52:07.564Z,58.79
2023-03-15T00:54:33.883Z,58.57
2023-03-15T00:57:00.186Z,58.19
2023-03-15T00:59:26.487Z,58.32
2023-03-15T01:01:52.851Z,58.47
2023-03-15T01:04:19.288Z,59.39
2023-03-15T01:06:45.612Z,59.04
2023-03-15T01:09:11.929Z,59.43
2023-03-15T01:11:38.267Z,59.34
2023-03-15T01:14:04.588Z,60.10
2023-03-15T01:16:30.908Z,60.88
2023-03-15T01:18:57.237Z,60.91
2023-03-15T01:21:23.533Z,61.16
2023-03-15T01:23:49.836Z,60.95
2023-03-15T01:26:16.145Z,61.48
2023-03-15T01:28:42.481Z,60.86
2023-03-15T01:31:08.853Z,60.84
2023-03-15T01:33:35.186Z,60.36
2023-03-15T01:36:01.542Z,59.88
2023-03-15T01:38:27.894Z,59.04
2023-03-15T01:40:54.191Z,59.09
2023-03-15T01:43:20.483Z,59.12
2023-03-15T01:45:46.787Z,58.56
2023-03-15T01:48:13.102Z,59.41
2023-03-15T01:50:39.417Z,60.13
2023-03-15T01:53:05.725Z,60.84
2023-03-15T01:55:32.041Z,61.19
2023-03-15T01:57:58.354Z,61.22
2023-03-15T02:00:24.672Z,61.56
2023-03-15T02:02:50.989Z,61.91
2023-03-15T02:05:17.298Z,61.27
2023-03-15T02:07:43.593Z,61.42
2023-03-15T02:10:09.902Z,61.49
2023-03-15T02:12:36.198Z,60.84
2023-03-15T02:15:02.499Z,60.77
2023-03-15T02:17:28.800Z,60.50
2023-03-15T02:19:55.119Z,61.26
2023-03-15T02:22:21.434Z,61.04
2023-03-15T02:24:47.765Z,60.54
2023-03-15T02:27:14.130Z,61.55
2023-03-15T02:29:40.528Z,61.30
2023-03-15T02:32:06.927Z,61.57
2023-03-15T02:34:33.263Z,60.77
2023-03-15T02:36:59.596Z,61.10
2023-03-15T02:39:25.904Z,60.91
2023-03-15T02:41:52.244Z,61.51
2023-03-15T02:44:18.553Z,60.89
2023-03-15T02:46:44.846Z,60.73
2023-03-15T02:49:11.161Z,60.53
2023-03-15T02:51:37.474Z,60.31
2023-03-15T02:54:03.779Z,60.08
2023-03-15T02:56:30.091Z,60.54
2023-03-15T02:58:56.401Z,60.67
2023-03-15T03:01:22.772Z,60.57
2023-03-15T03:03:49.156Z,60.26
2023-03-15T03:06:15.485Z,60.52
2023-03-15T03:08:41.824Z,61.61
2023-03-15T03:11:08.130Z,61.29
2023-03-15T03:13:34.429Z,61.53
2023-03-15T03:16:00.725Z,61.23
2023-03-15T03:18:27.018Z,61.00
2023-03-15T03:20:53.315Z,61.41
2023-03-15T03:23:19.611Z,62.17
2023-03-15T03:25:45.904Z,60.37
2023-03-15T03:28:12.228Z,60.47
2023-03-15T03:30:38.619Z,60.84
2023-03-15T03:33:04.977Z,59.96
2023-03-15T03:35:31.297Z,59.96
2023-03-15T03:37:57.604Z,60.06
2023-03-15T03:40:23.947Z,59.59
2023-03-15T03:42:50.263Z,59.42
2023-03-15T03:45:16.572Z,59.03
2023-03-15T03:47:42.886Z,59.52
2023-03-15T03:50:09.184Z,59.46
2023-03-15T03:52:35.501Z,59.21
2023-03-15T03:55:01.811Z,58.78
2023-03-15T03:57:28.118Z,58.59
2023-03-15T03:59:54.416Z,58.67
2023-03-15T04:02:20.735Z,58.14
2023-03-15T04:04:47.054Z,58.45
2023-03-15T04:07:14.893Z,57.81
2023-03-15T04:09:42.380Z,58.67
2023-03-15T04:12:08.740Z,57.28
2023-03-15T04:14:35.076Z,57.57
2023-03-15T04:17:01.388Z,57.09
2023-03-15T04:19:27.712Z,57.30
2023-03-15T04:21:54.008Z,57.10
2023-03-15T04:24:20.357Z,57.79
2023-03-15T04:26:46.669Z,58.65
2023-03-15T04:29:12.985Z,59.36
2023-03-15T04:31:39.350Z,58.91
2023-03-15T04:34:05.675Z,58.96
2023-03-15T04:36:32.005Z,59.31
2023-03-15T04:38:58.307Z,59.20
2023-03-15T04:41:24.610Z,59.85
2023-03-15T04:43:50.914Z,59.65
2023-03-15T04:46:17.282Z,58.79
2023-03-15T04:48:43.598Z,59.52
2023-03-15T04:51:09.915Z,59.54
2023-03-15T04:53:36.221Z,59.11
2023-03-15T04:56:04.733Z,59.08
2023-03-15T04:58:31.149Z,58.88
2023-03-15T05:00:57.539Z,59.06
2023-03-15T05:03:23.870Z,59.16
2023-03-15T05:05:50.186Z,58.99
2023-03-15T05:08:16.510Z,59.36
2023-03-15T05:10:42.957Z,59.57
2023-03-15T05:13:09.286Z,59.77
2023-03-15T05:15:35.603Z,59.42
2023-03-15T05:18:01.920Z,59.32
2023-03-15T05:20:28.283Z,59.40
2023-03-15T05:22:54.595Z,60.20
2023-03-15T05:25:20.904Z,61.01
2023-03-15T05:27:47.218Z,59.89
2023-03-15T05:30:13.534Z,59.22
2023-03-15T05:32:39.942Z,59.14
2023-03-15T05:35:06.295Z,59.55
2023-03-15T05:37:32.626Z,58.68
2023-03-15T05:39:58.922Z,59.54
2023-03-15T05:42:25.250Z,58.77
2023-03-15T05:44:51.563Z,58.83
2023-03-15T05:47:17.870Z,58.89
2023-03-15T05:49:44.178Z,58.68
2023-03-15T05:52:10.495Z,58.87
2023-03-15T05:54:36.824Z,59.10
2023-03-15T05:57:03.138Z,59.19
2023-03-15T05:59:29.444Z,59.45
2023-03-15T06:01:55.745Z,59.42
2023-03-15T06:04:22.089Z,59.36
2023-03-15T06:06:48.414Z,59.04
2023-03-15T06:09:14.715Z,59.90
2023-03-15T06:11:41.030Z,59.63
2023-03-15T06:14:07.346Z,59.11
2023-03-15T06:16:33.681Z,58.70
2023-03-15T06:19:00.088Z,59.26
2023-03-15T06:21:26.438Z,59.33
2023-03-15T06:23:52.759Z,59.65
2023-03-15T06:26:19.078Z,59.46
2023-03-15T06:28:45.390Z,59.08
2023-03-15T06:31:11.797Z,60.12
2023-03-15T06:33:38.170Z,58.95
2023-03-15T06:36:04.537Z,59.53
2023-03-15T06:38:30.866Z,59.27
2023-03-15T06:40:57.172Z,59.27
2023-03-15T06:43:23.498Z,59.39
2023-03-15T06:45:49.816Z,64.09
2023-03-15T06:48:16.135Z,67.74
2023-03-15T06:50:47.277Z,64.17
2023-03-15T06:53:14.137Z,63.92
2023-03-15T06:55:40.448Z,60.12
2023-03-15T06:58:06.796Z,64.15
2023-03-15T07:00:33.138Z,63.64
2023-03-15T07:02:59.593Z,61.41
2023-03-15T07:05:25.986Z,60.52
2023-03-15T07:07:52.291Z,61.33
2023-03-15T07:10:18.613Z,61.64
2023-03-15T07:12:44.938Z,58.17
2023-03-15T07:15:11.259Z,56.62
2023-03-15T07:17:37.612Z,55.56
2023-03-15T07:20:03.930Z,55.06
2023-03-15T07:22:30.239Z,54.13
2023-03-15T07:24:56.569Z,54.62
2023-03-15T07:27:22.883Z,57.84
2023-03-15T07:29:49.183Z,55.84
2023-03-15T07:32:15.613Z,56.56
2023-03-15T07:34:41.950Z,56.22
2023-03-15T07:37:08.255Z,55.64
2023-03-15T07:39:34.560Z,55.74
2023-03-15T07:42:00.865Z,55.97
2023-03-15T07:44:27.198Z,54.71
2023-03-15T07:46:53.527Z,55.66
2023-03-15T07:49:19.860Z,52.99
2023-03-15T07:51:46.168Z,53.67
2023-03-15T07:54:12.490Z,54.64
2023-03-15T07:56:38.809Z,54.86
2023-03-15T07:59:05.145Z,53.11
2023-03-15T08:01:31.476Z,54.14
2023-03-15T08:03:57.803Z,52.75
2023-03-15T08:06:24.115Z,52.47
2023-03-15T08:08:50.430Z,52.83
2023-03-15T08:11:16.729Z,51.76
2023-03-15T08:13:43.046Z,53.34
2023-03-15T08:16:09.512Z,51.60
2023-03-15T08:18:35.887Z,53.81
2023-03-15T08:21:02.220Z,52.31
2023-03-15T08:23:28.549Z,52.83
2023-03-15T08:25:54.854Z,51.99
2023-03-15T08:28:21.154Z,51.19
2023-03-15T08:30:47.457Z,53.63
2023-03-15T08:33:13.803Z,51.03
2023-03-15T08:35:40.109Z,52.71
2023-03-15T08:38:06.416Z,52.89
2023-03-15T08:40:32.717Z,52.66
2023-03-15T08:42:59.034Z,51.83
2023-03-15T08:45:25.366Z,51.70
2023-03-15T08:47:51.673Z,51.49
2023-03-15T08:50:17.996Z,49.95
2023-03-15T08:52:44.336Z,51.43
2023-03-15T08:55:10.646Z,49.18
2023-03-15T08:57:36.945Z,48.82
2023-03-15T09:00:03.289Z,50.11
2023-03-15T09:02:29.621Z,48.30
2023-03-15T09:04:55.952Z,47.94
2023-03-15T09:07:22.267Z,48.34
2023-03-15T09:09:48.596Z,48.05
2023-03-15T09:12:14.940Z,47.84
2023-03-15T09:14:41.245Z,45.21
2023-03-15T09:17:07.599Z,44.99
2023-03-15T09:19:33.970Z,48.75
2023-03-15T09:22:15.899Z,47.60
2023-03-15T09:24:46.600Z,46.06
2023-03-15T09:27:12.920Z,45.03
2023-03-15T09:29:39.235Z,46.09
2023-03-15T09:32:05.538Z,43.62
2023-03-15T09:34:39.928Z,44.52
2023-03-15T09:37:07.940Z,43.84
2023-03-15T09:39:34.269Z,45.68
2023-03-15T09:42:00.587Z,46.35
2023-03-15T09:44:26.917Z,46.33
2023-03-15T09:46:53.294Z,46.14
2023-03-15T09:49:19.705Z,43.88
2023-03-15T09:51:46.028Z,43.08
2023-03-15T09:54:12.341Z,42.75
2023-03-15T09:56:38.653Z,43.21
2023-03-15T09:59:04.963Z,43.33
2023-03-15T10:01:31.386Z,42.46
2023-03-15T10:03:57.821Z,43.78
2023-03-15T10:06:24.178Z,42.73
2023-03-15T10:08:50.508Z,43.52
2023-03-15T10:11:16.827Z,43.14
2023-03-15T10:13:43.146Z,43.85
2023-03-15T10:16:09.540Z,45.81
2023-03-15T10:18:35.902Z,42.26
2023-03-15T10:21:02.218Z,41.87
2023-03-15T10:23:28.534Z,45.79
2023-03-15T10:25:54.834Z,42.71
2023-03-15T10:28:21.135Z,41.06
2023-03-15T10:30:47.463Z,43.61
2023-03-15T10:33:13.758Z,42.75
2023-03-15T10:35:40.107Z,41.02
2023-03-15T10:38:06.433Z,39.80
2023-03-15T10:40:32.734Z,38.86
2023-03-15T10:42:59.056Z,38.33
2023-03-15T10:45:25.384Z,36.04
2023-03-15T10:47:59.597Z,35.40
2023-03-15T10:50:26.509Z,35.87
2023-03-15T10:52:52.827Z,36.43
2023-03-15T10:55:19.160Z,35.11
2023-03-15T10:57:45.459Z,35.90
2023-03-15T11:00:11.765Z,38.86
2023-03-15T11:02:38.104Z,38.01
2023-03-15T11:05:04.451Z,39.11
2023-03-15T11:07:30.755Z,38.66
2023-03-15T11:09:57.053Z,38.73
2023-03-15T11:12:23.434Z,35.48
2023-03-15T11:14:49.765Z,35.28
2023-03-15T11:17:16.074Z,33.43
2023-03-15T11:19:42.370Z,32.63
2023-03-15T11:22:08.694Z,33.17
2023-03-15T11:24:35.051Z,36.07
2023-03-15T11:27:01.400Z,36.45
2023-03-15T11:29:27.731Z,34.84
2023-03-15T11:31:54.105Z,34.10
2023-03-15T11:34:20.485Z,32.83
2023-03-15T11:36:49.107Z,31.29
2023-03-15T11:39:19.450Z,33.83
2023-03-15T11:41:45.761Z,34.38
2023-03-15T11:44:12.059Z,32.09
2023-03-15T11:46:38.356Z,33.80
2023-03-15T11:49:04.685Z,34.45
2023-03-15T11:51:31.017Z,33.20
2023-03-15T11:53:57.313Z,32.61
2023-03-15T11:56:23.637Z,34.09
2023-03-15T11:58:49.948Z,34.31
2023-03-15T12:01:16.251Z,34.87
2023-03-15T12:03:42.613Z,35.96
2023-03-15T12:06:08.964Z,36.86
2023-03-15T12:08:35.274Z,34.96
2023-03-15T12:11:01.598Z,33.03
2023-03-15T12:13:27.912Z,35.85
2023-03-15T12:15:54.217Z,36.75
2023-03-15T12:18:20.563Z,37.23
2023-03-15T12:20:46.890Z,33.84
2023-03-15T12:23:13.219Z,35.07
2023-03-15T12:25:54.153Z,36.28
2023-03-15T12:28:21.238Z,35.67
2023-03-15T12:30:47.580Z,37.91
2023-03-15T12:33:13.911Z,37.83
2023-03-15T12:35:40.285Z,36.73
2023-03-15T12:38:06.621Z,36.90
2023-03-15T12:40:32.938Z,36.71
2023-03-15T12:42:59.254Z,35.51
2023-03-15T12:45:25.578Z,34.14
2023-03-15T12:47:51.905Z,35.68
2023-03-15T12:50:18.242Z,35.05
2023-03-15T12:52:44.556Z,36.70
2023-03-15T12:55:10.903Z,38.01
2023-03-15T12:57:37.231Z,35.12
2023-03-15T13:00:03.566Z,33.92
2023-03-15T13:02:42.315Z,34.11
2023-03-15T13:05:09.435Z,34.70
2023-03-15T13:07:50.287Z,34.19
2023-03-15T13:10:17.234Z,35.52
2023-03-15T13:12:43.589Z,34.81
2023-03-15T13:15:09.928Z,34.52
2023-03-15T13:17:36.249Z,33.88
2023-03-15T13:20:02.606Z,34.39
2023-03-15T13:22:28.938Z,34.60
2023-03-15T13:24:55.242Z,34.13
2023-03-15T13:27:21.538Z,35.31
2023-03-15T13:29:47.837Z,34.90
2023-03-15T13:32:14.159Z,33.95
2023-03-15T13:34:40.469Z,35.62
2023-03-15T13:37:06.777Z,32.04
2023-03-15T13:39:33.145Z,33.30
2023-03-15T13:41:59.486Z,31.85
2023-03-15T13:44:25.795Z,32.04
2023-03-15T13:46:52.219Z,31.84
2023-03-15T13:49:18.556Z,31.48
2023-03-15T13:51:44.858Z,32.39
2023-03-15T13:54:11.214Z,33.04
2023-03-15T13:56:48.829Z,32.68
2023-03-15T13:59:16.064Z,33.99
2023-03-15T14:01:42.470Z,32.44
2023-03-15T14:04:08.934Z,32.19
2023-03-15T14:06:35.248Z,32.75
2023-03-15T14:09:01.568Z,34.25
2023-03-15T14:11:27.900Z,32.71
2023-03-15T14:13:54.227Z,33.35
2023-03-15T14:16:20.604Z,31.35
2023-03-15T14:18:46.960Z,30.82
2023-03-15T14:21:13.271Z,31.94
2023-03-15T14:23:39.700Z,32.33
2023-03-15T14:26:06.010Z,32.60
2023-03-15T14:28:32.325Z,33.90
2023-03-15T14:30:58.650Z,31.23
2023-03-15T14:33:24.951Z,31.48
2023-03-15T14:35:51.299Z,30.75
2023-03-15T14:38:17.638Z,31.18
2023-03-15T14:40:43.973Z,32.06
2023-03-15T14:43:10.264Z,31.40
2023-03-15T14:45:36.612Z,30.41
2023-03-15T14:48:02.922Z,31.44
2023-03-15T14:50:29.318Z,31.95
2023-03-15T14:52:55.654Z,31.64
2023-03-15T14:55:21.993Z,32.08
2023-03-15T14:57:48.297Z,32.87
2023-03-15T15:00:14.623Z,33.62
2023-03-15T15:02:41.024Z,33.40
2023-03-15T15:05:07.394Z,33.84
2023-03-15T15:07:33.719Z,34.77
2023-03-15T15:10:00.033Z,32.08
2023-03-15T15:12:26.340Z,31.07
2023-03-15T15:14:52.763Z,30.66
2023-03-15T15:17:19.213Z,30.60
2023-03-15T15:19:47.037Z,30.33
2023-03-15T15:22:13.509Z,32.39
2023-03-15T15:24:39.820Z,32.81
2023-03-15T15:27:06.122Z,32.35
2023-03-15T15:29:32.706Z,29.49
2023-03-15T15:31:59.057Z,29.79
2023-03-15T15:34:25.476Z,31.66
2023-03-15T15:36:51.798Z,29.47
2023-03-15T15:39:18.144Z,29.05
2023-03-15T15:41:44.497Z,28.78
2023-03-15T15:44:10.813Z,28.95
2023-03-15T15:46:37.130Z,30.25
2023-03-15T15:49:03.436Z,30.36
2023-03-15T15:51:29.748Z,28.44
2023-03-15T15:53:56.078Z,30.66
2023-03-15T15:56:22.379Z,29.51
2023-03-15T15:58:48.713Z,30.57
2023-03-15T16:01:15.060Z,29.50
2023-03-15T16:03:41.412Z,28.64
2023-03-15T16:06:07.733Z,28.24
2023-03-15T16:08:34.063Z,29.25
2023-03-15T16:11:00.518Z,29.56
2023-03-15T16:13:26.891Z,29.70
2023-03-15T16:15:53.264Z,30.27
2023-03-15T16:18:19.586Z,29.81
2023-03-15T16:20:45.903Z,29.59
2023-03-15T16:23:12.232Z,29.68
2023-03-15T16:25:38.566Z,29.99
2023-03-15T16:28:04.876Z,29.64
2023-03-15T16:30:31.191Z,29.79
2023-03-15T16:32:57.525Z,30.04
2023-03-15T16:35:23.838Z,30.81
2023-03-15T16:37:50.158Z,31.00
2023-03-15T16:40:16.485Z,30.89
2023-03-15T16:42:42.807Z,30.24
2023-03-15T16:45:09.132Z,29.82
2023-03-15T16:47:35.455Z,30.01
2023-03-15T16:50:01.777Z,31.07
2023-03-15T16:52:28.103Z,31.43
2023-03-15T16:54:54.420Z,31.33
2023-03-15T16:57:20.750Z,32.29
2023-03-15T16:59:47.075Z,32.73
2023-03-15T17:02:13.385Z,34.14
2023-03-15T17:04:39.709Z,33.34
2023-03-15T17:07:06.026Z,33.47
2023-03-15T17:09:32.342Z,34.65
2023-03-15T17:11:58.650Z,34.89
2023-03-15T17:14:24.946Z,35.26
2023-03-15T17:16:51.322Z,35.53
2023-03-15T17:19:17.643Z,36.52
2023-03-15T17:21:43.958Z,37.77
2023-03-15T17:24:10.261Z,38.19
2023-03-15T17:26:36.567Z,38.06
2023-03-15T17:29:02.869Z,38.95
2023-03-15T17:31:29.246Z,39.01
2023-03-15T17:33:55.577Z,38.80
2023-03-15T17:36:21.882Z,38.68
2023-03-15T17:38:48.195Z,37.87
2023-03-15T17:41:14.593Z,37.99
2023-03-15T17:43:40.918Z,38.62
2023-03-15T17:46:07.229Z,38.90
2023-03-15T17:48:33.544Z,38.54
2023-03-15T17:50:59.852Z,38.19
2023-03-15T17:53:26.150Z,37.60
2023-03-15T17:55:52.461Z,38.13
2023-03-15T17:58:18.808Z,38.70
2023-03-15T18:00:45.217Z,38.73
2023-03-15T18:03:11.614Z,38.88
2023-03-15T18:05:37.941Z,39.19
2023-03-15T18:08:04.251Z,39.09
2023-03-15T18:10:30.577Z,39.27
2023-03-15T18:12:56.878Z,39.81
2023-03-15T18:15:23.185Z,41.21
2023-03-15T18:17:49.510Z,41.31
2023-03-15T18:20:15.849Z,40.78
2023-03-15T18:22:42.195Z,40.89
2023-03-15T18:25:08.523Z,41.48
2023-03-15T18:27:35.974Z,41.00
2023-03-15T18:30:02.341Z,41.39
2023-03-15T18:32:28.672Z,41.52
2023-03-15T18:34:55.040Z,41.43
2023-03-15T18:37:21.350Z,41.77
2023-03-15T18:39:47.713Z,41.62
2023-03-15T18:42:14.022Z,42.52
2023-03-15T18:44:40.333Z,42.40
2023-03-15T18:47:08.555Z,41.94
2023-03-15T18:49:34.998Z,41.29
2023-03-15T18:52:01.312Z,42.09
2023-03-15T18:54:27.606Z,41.45
2023-03-15T18:56:53.903Z,41.15
2023-03-15T18:59:20.213Z,41.72
2023-03-15T19:01:46.638Z,41.97
2023-03-15T19:04:12.978Z,42.10
2023-03-15T19:06:39.304Z,42.24
2023-03-15T19:09:05.611Z,42.32
2023-03-15T19:11:31.908Z,42.60
2023-03-15T19:13:58.214Z,42.42
2023-03-15T19:16:24.615Z,42.03
2023-03-15T19:18:50.978Z,42.63
2023-03-15T19:21:17.286Z,42.80
2023-03-15T19:23:43.608Z,43.28
2023-03-15T19:26:09.901Z,43.35
2023-03-15T19:28:36.217Z,43.55
2023-03-15T19:31:02.622Z,43.62
2023-03-15T19:33:28.964Z,43.87
2023-03-15T19:35:55.341Z,43.82
2023-03-15T19:38:21.701Z,44.39
2023-03-15T19:40:48.006Z,44.12
2023-03-15T19:43:14.335Z,43.56
2023-03-15T19:45:40.679Z,44.00
2023-03-15T19:48:06.977Z,44.07
2023-03-15T19:50:33.301Z,44.41
2023-03-15T19:52:59.611Z,44.24
2023-03-15T19:55:25.931Z,44.09
2023-03-15T19:57:52.241Z,44.22
2023-03-15T20:00:18.987Z,44.51
2023-03-15T20:02:45.775Z,45.12
2023-03-15T20:05:12.116Z,45.00
2023-03-15T20:07:38.431Z,45.77
2023-03-15T20:10:04.762Z,45.42
2023-03-15T20:12:31.097Z,45.45
2023-03-15T20:14:57.402Z,45.58
2023-03-15T20:17:23.731Z,45.81
2023-03-15T20:19:50.055Z,45.41
2023-03-15T20:22:16.378Z,45.76
2023-03-15T20:24:42.737Z,45.92
2023-03-15T20:27:09.060Z,46.70
2023-03-15T20:29:35.390Z,46.31
2023-03-15T20:32:01.702Z,46.36
2023-03-15T20:34:28.029Z,46.76
2023-03-15T20:36:54.356Z,46.74
2023-03-15T20:39:20.674Z,46.46
2023-03-15T20:41:46.986Z,47.01
2023-03-15T20:44:13.299Z,47.05
2023-03-15T20:46:39.692Z,46.71
2023-03-15T20:49:06.029Z,46.54
2023-03-15T20:51:32.365Z,46.99
2023-03-15T20:53:58.684Z,46.84
2023-03-15T20:56:25.001Z,46.94
2023-03-15T20:58:51.304Z,47.26
2023-03-15T21:01:17.653Z,47.12
2023-03-15T21:03:44.048Z,47.39
2023-03-15T21:06:10.437Z,47.18
2023-03-15T21:08:36.762Z,48.10
2023-03-15T21:11:03.106Z,47.49
2023-03-15T21:13:29.443Z,48.23
2023-03-15T21:15:55.749Z,48.13
2023-03-15T21:18:22.070Z,48.18
2023-03-15T21:20:48.383Z,48.59
2023-03-15T21:23:14.676Z,49.05
2023-03-15T21:25:40.978Z,49.51
2023-03-15T21:28:07.292Z,49.70
2023-03-15T21:30:33.611Z,48.92
2023-03-15T21:33:00.005Z,49.37
2023-03-15T21:35:26.394Z,49.63
2023-03-15T21:37:52.731Z,48.98
2023-03-15T21:40:19.054Z,49.03
2023-03-15T21:42:45.372Z,48.96
2023-03-15T21:45:11.760Z,49.09
2023-03-15T21:47:38.201Z,49.46
2023-03-15T21:50:04.502Z,49.74
2023-03-15T21:52:30.806Z,49.82
2023-03-15T21:54:57.107Z,49.94
2023-03-15T21:57:23.445Z,50.90
2023-03-15T21:59:49.759Z,50.39
2023-03-15T22:02:16.055Z,50.25
2023-03-15T22:04:42.457Z,50.29
2023-03-15T22:07:08.848Z,50.03
2023-03-15T22:09:35.169Z,50.18
2023-03-15T22:12:01.506Z,50.86
2023-03-15T22:14:27.819Z,50.22
2023-03-15T22:16:54.286Z,50.52
2023-03-15T22:19:20.648Z,50.31
2023-03-15T22:21:46.973Z,50.40
2023-03-15T22:24:13.288Z,50.76
2023-03-15T22:26:39.599Z,50.70
2023-03-15T22:29:05.913Z,50.53
2023-03-15T22:31:32.234Z,50.73
2023-03-15T22:33:58.561Z,50.73
2023-03-15T22:36:24.897Z,50.20
2023-03-15T22:38:51.213Z,51.05
2023-03-15T22:41:17.535Z,52.07
2023-03-15T22:43:43.941Z,51.17
2023-03-15T22:46:10.319Z,51.06
2023-03-15T22:48:36.656Z,50.71
2023-03-15T22:51:02.970Z,50.56
2023-03-15T22:53:29.280Z,51.23
2023-03-15T22:55:55.577Z,51.37
2023-03-15T22:58:21.887Z,52.34
2023-03-15T23:00:48.227Z,52.14
2023-03-15T23:03:14.535Z,52.11
2023-03-15T23:05:40.835Z,52.18
2023-03-15T23:08:07.145Z,52.21
2023-03-15T23:10:33.461Z,51.40
2023-03-15T23:12:59.781Z,51.31
2023-03-15T23:15:26.113Z,51.00
2023-03-15T23:17:52.438Z,51.66
2023-03-15T23:20:18.769Z,51.51
2023-03-15T23:22:45.069Z,51.61
2023-03-15T23:25:11.374Z,51.24
2023-03-15T23:27:37.690Z,51.17
2023-03-15T23:30:04.023Z,51.23
2023-03-15T23:32:30.411Z,51.55
2023-03-15T23:34:56.761Z,51.04
2023-03-15T23:37:23.097Z,51.20
2023-03-15T23:39:49.425Z,51.90
2023-03-15T23:42:15.750Z,52.70
2023-03-15T23:44:42.089Z,52.33
2023-03-15T23:47:08.435Z,51.86
2023-03-15T23:49:34.770Z,52.39
2023-03-15T23:52:01.085Z,51.85
2023-03-15T23:54:27.382Z,52.49
2023-03-15T23:56:53.700Z,52.45
2023-03-15T23:59:20.018Z,52.05
